CheckWX is a tool to help pilots better visualize weather data.  It is not intended as a substitute for an official pre-flight weather briefing.

09:15:52 UTC

KSRC METAR
Searcy Municipal Airport
Searcy, Arkansas, USA
Current

20 mins ago

KSRC 250856Z AUTO 00000KT 10SM BKN070 23/23 A2996 RMK AO2 SLP145 T02280228 58003
Observed
Aug-25 @ 08:56 UTC
Visibility
10 SM
Flight Rules
VFR
Cloud Levels
  • Broken at 7,000' AGL
Temperature
23°C / 73°F
Dewpoint
23°C / 73°F
Humidity
100%
Altimeter
29.96" Hg
Pressure
1014.52 hPa
Previous

1 hour ago

KSRC 250810Z AUTO 36003KT 10SM FEW008 OVC014 23/23 A2997 RMK AO2
Observed
Aug-25 @ 08:10 UTC
Wind
  • 360° at 3 KTS
Visibility
10 SM
Flight Rules
MVFR
Cloud Levels
  • Few at 800' AGL
  • Overcast at 1,400' AGL
Temperature
23°C / 73°F
Dewpoint
23°C / 73°F
Humidity
100%
Altimeter
29.97" Hg
Pressure
1014.92 hPa
Previous

1 hour ago

KSRC 250756Z AUTO 00000KT 10SM BKN008 OVC014 23/23 A2997 RMK AO2 SLP148 T02330233
Observed
Aug-25 @ 07:56 UTC
Visibility
10 SM
Flight Rules
IFR
Cloud Levels
  • Broken at 800' AGL
  • Overcast at 1,400' AGL
Temperature
23°C / 73°F
Dewpoint
23°C / 73°F
Humidity
100%
Altimeter
29.97" Hg
Pressure
1014.92 hPa